• Join FlightAware (Why Join?)
  • Login
  • US Flag 
07:41PM EDT


 

Airport Tracker/Info


-or-


 

Live Flight TrackerFlight Track Log ✈ VRT51 ✈ 09-Aug-2013 ✈ KBNA - KTYQ

Flight Track Log - Related Links

Times and Time Zones

All times are in EDT time to prevent confusion due to time zone crossing. See the VRT51 flight status page for this flight to view local times or setup timezone preferences in your user account.

Time Position Orientation Groundspeed Altitude Reporting Facility
EDT Latitude Longitude Course Direction KTS MPH feet Rate Location/Type
05:00PM 36.1000 -86.6833 141° Southeast 148 170 1,300  Level Nashville TRACON
05:00PM 36.0833 -86.6667 141° Southeast 173 199 2,900 2,400 Climbing Nashville TRACON
05:01PM 36.0667 -86.6167 112° Southeast 230 265 5,200 2,160 Climbing Nashville TRACON
05:02PM 36.0967 -86.5758 48° Northeast 279 321 6,300 3,000 Climbing Memphis Center
05:03PM 36.1378 -86.4917 59° Northeast 285 328 9,800 3,420 Climbing Memphis Center
05:04PM 36.1789 -86.4022 60° Northeast 315 362 13,200 2,700 Climbing Memphis Center
05:05PM 36.2294 -86.2919 60° Northeast 363 418 15,200 4,860 Climbing Memphis Center
05:06PM 36.2878 -86.1653 60° Northeast 401 461 23,000 3,000 Climbing Memphis Center
05:07PM 36.3619 -86.0739 45° Northeast 414 476 21,300 -60 Descending Memphis Center
05:08PM 36.4453 -85.9803 42° Northeast 420 483 22,900 840 Climbing Indianapolis Center
05:09PM 36.5444 -85.8686 42° Northeast 472 543 22,900  Level Indianapolis Center
05:10PM 36.6419 -85.7536 43° Northeast 473 544 23,000  Climbing Indianapolis Center
05:11PM 36.7397 -85.6428 42° Northeast 472 543 23,000  Level Indianapolis Center
05:12PM 36.8467 -85.5481 35° Northeast 472 543 23,000  Level Indianapolis Center
05:13PM 36.9558 -85.4561 34° Northeast 469 540 23,000  Level Indianapolis Center
05:14PM 37.0733 -85.3586 33° Northeast 468 539 23,000  Level Indianapolis Center
05:15PM 37.1975 -85.3458 North 450 518 23,000  Level Indianapolis Center
05:16PM 37.3081 -85.4117 335° Northwest 442 509 23,000  Level Indianapolis Center
05:17PM 37.4036 -85.5267 316° Northwest 441 507 23,000  Level Indianapolis Center
05:18PM 37.4942 -85.6322 317° Northwest 442 509 23,000  Level Indianapolis Center
05:19PM 37.5825 -85.7381 316° Northwest 439 505 23,000  Level Indianapolis Center
05:20PM 37.6733 -85.8442 317° Northwest 444 511 23,000  Level Indianapolis Center
05:21PM 37.7658 -85.9547 317° Northwest 456 525 23,000  Level Indianapolis Center
05:22PM 37.8592 -86.0669 317° Northwest 462 532 23,000  Level Indianapolis Center
05:23PM 37.9958 -86.1500 334° Northwest 471 542 23,000  Level Indianapolis Center
05:24PM 38.1275 -86.1531 359° North 472 543 23,000  Level Indianapolis Center
05:25PM 38.2569 -86.1600 358° North 468 539 23,000  Level Indianapolis Center
05:26PM 38.3853 -86.1372 North 475 547 23,000  Level Indianapolis Center
05:27PM 38.5092 -86.0831 19° North 473 544 23,000  Level Indianapolis Center
05:28PM 38.6353 -86.0289 19° North 477 549 23,000 -1,020 Level Indianapolis Center
05:30PM 38.7742 -85.9336 28° Northeast 472 543 21,000 -2,580 Descending Indianapolis Center
05:31PM 38.9500 -85.8000 31° Northeast 424 488 16,000 -2,520 Descending Indianapolis TRACON
05:32PM 39.0667 -85.7333 24° Northeast 391 450 14,000 -1,860 Descending Indianapolis TRACON
05:33PM 39.1667 -85.7333 360° North 359 413 12,100 -1,980 Descending Indianapolis TRACON
05:34PM 39.2667 -85.7500 353° North 348 400 10,100 -1,080 Descending Indianapolis TRACON
05:35PM 39.3500 -85.8000 335° Northwest 321 369 10,000 -60 Descending Indianapolis TRACON
05:36PM 39.4167 -85.8500 330° Northwest 342 394 10,000  Level Indianapolis TRACON
05:37PM 39.5167 -85.9167 333° Northwest 351 404 10,000  Level Indianapolis TRACON
05:38PM 39.5389 -85.9319 332° Northwest 347 399 10,000 -1,140 Level Indianapolis Center
05:39PM 39.6314 -85.9914 334° Northwest 320 368 8,300 -1,860 Descending Indianapolis Center
05:40PM 39.6981 -86.0344 334° Northwest 287 330 6,300 -1,140 Descending Indianapolis Center
05:41PM 39.7606 -86.0764 333° Northwest 265 305 6,000 -180 Descending Indianapolis Center
05:42PM 39.8256 -86.1186 333° Northwest 264 304 6,000 -1,140 Level Indianapolis Center
05:43PM 39.9000 -86.1647 335° Northwest 257 296 3,700 -1,740 Descending Indianapolis Center
05:44PM 39.9422 -86.2142 318° Northwest 229 264 2,500 -840 Descending Indianapolis Center
05:45PM 39.9731 -86.2489 319° Northwest 179 206 2,000 -600 Descending Indianapolis Center
05:46PM 40.0094 -86.2511 357° North 148 170 1,300 -720 Descending Indianapolis Center